Time;durP1;ratioP1;P1;durP2;ratioP2;P2;SDS_P1;SDS_P2;PMS_P1;PMS_P2;Temp;Humidity;BMP_temperature;BMP_pressure;BME280_temperature;BME280_humidity;BME280_pressure;Samples;Min_cycle;Max_cycle;Signal;HPM_P1;HPM_P2
2021/04/07 00:00:32;;;;;;;9.23;2.60;;;;;;;-0.61;84.09;101009.47;4987338;28;20035;-65
2021/04/07 00:02:59;;;;;;;12.18;3.28;;;;;;;-0.56;84.51;101012.16;4994588;28;20050;-64
2021/04/07 00:05:28;;;;;;;14.60;2.83;;;;;;;-0.53;84.38;101010.56;4992355;28;20086;-64
2021/04/07 00:07:54;;;;;;;7.25;2.35;;;;;;;-0.64;84.39;101011.91;4987311;28;20065;-64
2021/04/07 00:10:22;;;;;;;11.73;2.88;;;;;;;-0.60;83.99;101013.75;4974633;28;20492;-64
2021/04/07 00:12:49;;;;;;;12.57;3.42;;;;;;;-0.51;84.00;101024.25;4974669;28;20496;-64
2021/04/07 00:15:18;;;;;;;11.55;3.00;;;;;;;-0.44;83.57;101012.50;4986632;28;20389;-64
2021/04/07 00:17:44;;;;;;;9.02;3.03;;;;;;;-0.58;83.82;101024.84;4991652;28;20042;-62
2021/04/07 00:20:12;;;;;;;10.18;3.00;;;;;;;-0.56;84.28;101018.13;4995803;28;20073;-64
2021/04/07 00:22:39;;;;;;;13.60;2.88;;;;;;;-0.57;83.68;101018.06;4988579;28;20101;-64
2021/04/07 00:25:07;;;;;;;11.45;3.33;;;;;;;-0.65;84.69;101011.03;4983395;28;20050;-64
2021/04/07 00:27:35;;;;;;;12.00;4.53;;;;;;;-0.55;84.34;101011.34;4984253;28;20042;-64
2021/04/07 00:30:01;;;;;;;15.32;4.20;;;;;;;-0.52;84.22;101008.84;4978737;28;20126;-65
2021/04/07 00:32:27;;;;;;;12.38;4.13;;;;;;;-0.51;83.89;101008.91;4982066;28;20052;-64
2021/04/07 00:34:53;;;;;;;16.52;4.57;;;;;;;-0.48;84.31;101008.13;4975858;28;20050;-64
2021/04/07 00:37:19;;;;;;;7.93;3.90;;;;;;;-0.59;84.48;101015.44;4987788;28;20130;-65
2021/04/07 00:39:46;;;;;;;9.85;3.83;;;;;;;-0.54;84.21;101007.94;4985863;28;20121;-65
2021/04/07 00:42:12;;;;;;;11.95;4.43;;;;;;;-0.65;84.61;101005.91;4983595;28;20054;-62
2021/04/07 00:44:38;;;;;;;15.60;4.10;;;;;;;-0.56;84.28;101012.16;5002771;28;20073;-64
2021/04/07 00:47:04;;;;;;;14.40;4.10;;;;;;;-0.48;84.30;101010.69;5005636;28;20047;-63
2021/04/07 00:49:29;;;;;;;14.60;4.65;;;;;;;-0.47;83.74;101020.94;4991794;28;20046;-63
2021/04/07 00:51:56;;;;;;;17.08;4.53;;;;;;;-0.51;84.18;101014.03;4990758;28;20078;-66
2021/04/07 00:54:22;;;;;;;13.98;4.30;;;;;;;-0.45;83.62;101017.56;4993134;28;20050;-65
2021/04/07 00:56:51;;;;;;;13.27;4.55;;;;;;;-0.42;83.69;101022.78;4976731;28;20046;-65
2021/04/07 00:59:19;;;;;;;12.40;3.70;;;;;;;-0.40;83.26;101022.00;4975487;28;20050;-64
2021/04/07 01:01:45;;;;;;;13.90;4.25;;;;;;;-0.37;83.00;101027.22;4973705;28;20501;-65
2021/04/07 01:07:34;;;;;;;13.20;2.90;;;;;;;-0.40;83.11;101034.78;4980048;28;20044;-64
2021/04/07 01:13:22;;;;;;;8.60;2.72;;;;;;;-0.35;82.86;101027.25;4979584;28;20116;-66
2021/04/07 01:15:48;;;;;;;18.35;4.93;;;;;;;-0.45;83.40;101027.78;4983842;28;20046;-65
2021/04/07 01:18:14;;;;;;;11.90;2.80;;;;;;;-0.40;83.44;101029.69;4974522;28;20514;-65
2021/04/07 01:20:40;;;;;;;11.98;3.03;;;;;;;-0.50;83.71;101025.94;4984818;28;20078;-64
2021/04/07 01:23:07;;;;;;;10.73;3.25;;;;;;;-0.44;84.06;101038.06;4990444;28;20057;-64
2021/04/07 01:25:34;;;;;;;15.25;2.90;;;;;;;-0.44;84.08;101027.84;4973489;28;20070;-65
2021/04/07 01:28:01;;;;;;;10.90;2.58;;;;;;;-0.38;83.82;101035.72;4973525;28;20090;-65
2021/04/07 01:33:48;;;;;;;10.77;3.05;;;;;;;-0.52;84.92;101036.94;4973972;28;20340;-65
2021/04/07 01:36:14;;;;;;;13.70;3.53;;;;;;;-0.47;84.42;101040.53;4991386;28;20145;-66
2021/04/07 01:38:40;;;;;;;15.10;3.75;;;;;;;-0.50;85.08;101043.00;4988873;28;20046;-65
2021/04/07 01:41:08;;;;;;;9.38;3.47;;;;;;;-0.55;85.37;101044.56;5001149;28;20080;-66
2021/04/07 01:43:34;;;;;;;10.65;3.13;;;;;;;-0.49;85.10;101042.16;5012251;28;20038;-66
2021/04/07 01:46:02;;;;;;;11.80;3.67;;;;;;;-0.51;84.97;101038.69;4983834;28;20038;-65
2021/04/07 01:48:30;;;;;;;13.65;4.00;;;;;;;-0.53;85.24;101037.78;4993663;28;20054;-65
2021/04/07 01:50:57;;;;;;;7.85;2.67;;;;;;;-0.58;85.12;101032.53;4988233;28;20421;-65
2021/04/07 01:53:23;;;;;;;8.60;3.00;;;;;;;-0.52;84.91;101034.41;4989967;28;20637;-64
2021/04/07 01:55:49;;;;;;;7.72;3.03;;;;;;;-0.50;85.47;101037.88;4972876;28;20138;-65
2021/04/07 01:58:16;;;;;;;9.93;3.00;;;;;;;-0.50;85.31;101032.75;4984852;28;20053;-65
2021/04/07 02:00:42;;;;;;;7.50;2.60;;;;;;;-0.53;85.62;101035.22;4973333;28;20508;-65
2021/04/07 02:03:08;;;;;;;11.02;2.92;;;;;;;-0.48;85.13;101032.00;4974276;28;20095;-66
2021/04/07 02:05:34;;;;;;;19.67;3.83;;;;;;;-0.51;85.56;101033.59;4972239;28;20054;-65
2021/04/07 02:08:00;;;;;;;9.73;2.90;;;;;;;-0.50;85.30;101023.41;4984037;28;20046;-65
2021/04/07 02:10:27;;;;;;;10.43;3.20;;;;;;;-0.57;85.14;101039.38;4981667;28;20578;-67
2021/04/07 02:12:53;;;;;;;8.18;2.60;;;;;;;-0.56;85.43;101030.03;4972882;28;20099;-66
2021/04/07 02:15:22;;;;;;;8.38;3.00;;;;;;;-0.52;85.53;101030.19;4979588;28;20467;-65
2021/04/07 02:17:48;;;;;;;15.35;2.60;;;;;;;-0.52;85.18;101025.06;4993658;28;20061;-63
2021/04/07 02:20:16;;;;;;;13.75;3.33;;;;;;;-0.44;85.42;101027.84;4991103;28;20057;-64
2021/04/07 02:22:43;;;;;;;8.93;2.88;;;;;;;-0.51;85.54;101028.47;4976250;28;20046;-64
2021/04/07 02:25:10;;;;;;;12.23;3.40;;;;;;;-0.49;86.09;101025.13;4977060;28;20160;-63
2021/04/07 02:27:36;;;;;;;14.55;3.22;;;;;;;-0.46;85.46;101024.38;4983482;28;20051;-64
2021/04/07 02:30:05;;;;;;;11.35;2.92;;;;;;;-0.42;85.49;101018.53;4973630;28;20062;-65
2021/04/07 02:32:32;;;;;;;8.60;2.70;;;;;;;-0.44;85.79;101011.66;4983717;28;20054;-64
2021/04/07 02:34:58;;;;;;;15.85;3.42;;;;;;;-0.43;85.88;101021.06;4972259;28;20086;-66
2021/04/07 02:37:24;;;;;;;8.52;3.05;;;;;;;-0.37;85.26;101021.22;4972363;28;20047;-65
2021/04/07 02:40:04;;;;;;;12.18;3.05;;;;;;;-0.38;85.55;101022.94;4976887;28;20507;-65
2021/04/07 02:42:42;;;;;;;10.50;3.72;;;;;;;-0.42;85.45;101021.09;4983178;28;20050;-63
2021/04/07 02:45:09;;;;;;;18.02;5.97;;;;;;;-0.34;85.75;101029.00;4969438;28;20039;-63
2021/04/07 02:47:36;;;;;;;7.78;3.42;;;;;;;-0.29;85.50;101026.56;4975561;28;20050;-64
2021/04/07 02:50:02;;;;;;;14.52;4.60;;;;;;;-0.40;85.92;101024.56;5009967;28;20042;-63
2021/04/07 02:52:29;;;;;;;14.30;4.72;;;;;;;-0.36;86.14;101028.97;4991021;28;20046;-63
2021/04/07 02:54:55;;;;;;;18.98;4.80;;;;;;;-0.42;86.32;101028.75;4990368;28;20053;-64
2021/04/07 02:57:21;;;;;;;11.13;3.47;;;;;;;-0.33;86.60;101028.19;4980377;28;20050;-65
2021/04/07 02:59:49;;;;;;;9.73;4.53;;;;;;;-0.38;86.19;101020.38;4975075;28;20062;-64
2021/04/07 03:02:16;;;;;;;12.85;4.78;;;;;;;-0.35;86.88;101024.69;4991774;28;20112;-65
2021/04/07 03:04:43;;;;;;;13.63;4.57;;;;;;;-0.35;87.07;101023.00;4991326;28;20057;-64
2021/04/07 03:07:09;;;;;;;15.95;4.63;;;;;;;-0.42;87.49;101038.13;4978293;28;20047;-64
2021/04/07 03:09:35;;;;;;;12.95;5.22;;;;;;;-0.44;87.74;101032.94;4991563;28;20120;-63
2021/04/07 03:12:01;;;;;;;12.13;5.78;;;;;;;-0.34;87.82;101024.72;4991268;28;20452;-62
2021/04/07 03:14:27;;;;;;;14.32;6.85;;;;;;;-0.41;88.32;101033.03;4979453;28;20050;-64
2021/04/07 03:16:53;;;;;;;12.90;7.40;;;;;;;-0.39;88.65;101023.75;4992499;28;20137;-63
2021/04/07 03:19:19;;;;;;;17.13;8.35;;;;;;;-0.36;88.46;101023.84;4991505;28;20081;-64
2021/04/07 03:21:46;;;;;;;15.73;7.05;;;;;;;-0.36;88.46;101023.84;4990864;28;20057;-64
2021/04/07 03:24:12;;;;;;;15.65;8.25;;;;;;;-0.37;87.90;101024.66;4975420;28;20055;-63
2021/04/07 03:26:38;;;;;;;12.90;7.50;;;;;;;-0.35;88.39;101020.44;4976691;28;20054;-63
2021/04/07 03:29:04;;;;;;;14.25;8.13;;;;;;;-0.37;88.30;101017.00;4982599;28;20542;-65
2021/04/07 03:31:30;;;;;;;15.10;8.25;;;;;;;-0.27;88.27;101017.28;4988822;28;20057;-65
2021/04/07 03:33:56;;;;;;;16.15;8.63;;;;;;;-0.32;88.05;101015.44;4977225;28;20051;-66
2021/04/07 03:36:22;;;;;;;15.15;8.57;;;;;;;-0.28;88.04;101007.88;4977345;28;20043;-64
2021/04/07 03:38:48;;;;;;;18.92;8.50;;;;;;;-0.34;88.60;101022.19;4983241;28;20070;-64
2021/04/07 03:41:14;;;;;;;13.48;8.85;;;;;;;-0.27;88.27;101007.91;4975279;28;20511;-63
2021/04/07 03:47:02;;;;;;;18.38;7.55;;;;;;;-0.26;88.31;101007.09;4978494;28;20464;-63
2021/04/07 03:52:50;;;;;;;20.85;8.05;;;;;;;-0.10;87.79;101010.94;4970311;28;20042;-66
2021/04/07 03:55:17;;;;;;;13.10;7.03;;;;;;;-0.10;87.67;101015.22;4984537;28;20051;-64
2021/04/07 03:57:43;;;;;;;15.52;6.90;;;;;;;-0.10;87.28;101016.06;4991361;28;20061;-64
2021/04/07 04:00:10;;;;;;;12.25;6.07;;;;;;;-0.11;87.30;101021.16;4982353;28;20576;-64
2021/04/07 04:02:36;;;;;;;11.98;6.30;;;;;;;-0.07;87.40;101013.59;4979540;28;20538;-65
2021/04/07 04:05:03;;;;;;;13.98;5.70;;;;;;;-0.15;87.71;101009.97;4983975;28;20138;-63
2021/04/07 04:07:29;;;;;;;10.00;5.65;;;;;;;-0.25;88.20;101003.72;4986078;28;20050;-64
2021/04/07 04:09:55;;;;;;;12.25;6.15;;;;;;;-0.18;87.90;101008.16;4983146;28;20423;-65
2021/04/07 04:12:21;;;;;;;10.95;5.22;;;;;;;-0.17;87.70;101006.50;4983255;28;20580;-63
2021/04/07 04:14:47;;;;;;;9.40;5.00;;;;;;;-0.18;88.44;101003.06;4980155;28;20051;-64
2021/04/07 04:17:13;;;;;;;11.23;5.07;;;;;;;-0.04;87.58;101005.16;4985837;28;20052;-64
2021/04/07 04:19:39;;;;;;;12.25;4.72;;;;;;;-0.11;88.03;100996.44;4981904;28;20063;-64
2021/04/07 04:22:07;;;;;;;11.40;5.35;;;;;;;-0.10;87.88;100995.63;4983421;28;20054;-65
2021/04/07 04:24:33;;;;;;;12.25;5.00;;;;;;;-0.07;88.46;100995.72;4985180;28;20122;-63
2021/04/07 04:26:59;;;;;;;13.63;4.63;;;;;;;-0.09;88.39;101014.38;4980567;28;20051;-64
2021/04/07 04:29:26;;;;;;;8.88;3.97;;;;;;;-0.03;88.60;101002.63;4981745;28;20065;-65
2021/04/07 04:31:52;;;;;;;11.13;4.60;;;;;;;-0.03;88.51;101004.34;4984203;28;20046;-64
2021/04/07 04:34:18;;;;;;;11.00;4.07;;;;;;;-0.09;88.51;101010.13;4987808;28;20392;-64
2021/04/07 04:36:44;;;;;;;8.43;3.85;;;;;;;-0.16;88.55;101011.63;4990396;28;20126;-65
2021/04/07 04:39:10;;;;;;;9.25;4.55;;;;;;;-0.14;88.86;101008.25;4985026;28;20046;-65
2021/04/07 04:41:36;;;;;;;14.23;5.85;;;;;;;-0.14;89.41;101008.25;4978709;28;20419;-65
2021/04/07 04:44:02;;;;;;;10.05;4.97;;;;;;;-0.08;88.92;101005.88;4981524;28;20047;-65
2021/04/07 04:46:29;;;;;;;15.52;5.80;;;;;;;-0.11;88.97;101006.66;4979469;28;20069;-66
2021/04/07 04:48:55;;;;;;;9.98;5.50;;;;;;;-0.10;88.89;101012.66;4981541;28;20054;-65
2021/04/07 04:51:21;;;;;;;11.82;6.15;;;;;;;-0.03;88.91;101005.19;4986303;28;20051;-65
2021/04/07 04:53:47;;;;;;;11.60;6.13;;;;;;;-0.05;89.47;101009.38;4981783;28;20145;-63
2021/04/07 04:59:34;;;;;;;17.27;7.60;;;;;;;-0.09;89.09;101002.47;4974269;28;20425;-66
2021/04/07 05:05:23;;;;;;;13.30;6.20;;;;;;;-0.10;88.81;101010.94;4972595;28;20723;-65
2021/04/07 05:07:49;;;;;;;14.73;7.53;;;;;;;0.04;89.07;101002.81;4978813;28;20152;-65
2021/04/07 05:10:15;;;;;;;21.98;8.13;;;;;;;0.12;88.98;101001.34;4984732;28;20078;-65
2021/04/07 05:12:41;;;;;;;17.45;8.30;;;;;;;0.09;88.63;101001.25;4984609;28;20050;-64
2021/04/07 05:15:08;;;;;;;23.77;10.20;;;;;;;-0.05;89.05;100998.31;4979559;28;20084;-66
2021/04/07 05:17:36;;;;;;;15.80;9.35;;;;;;;0.02;88.87;101007.00;4982149;28;20519;-64
2021/04/07 05:20:03;;;;;;;22.80;10.73;;;;;;;0.09;89.45;100996.13;4984019;28;20129;-64
2021/04/07 05:22:30;;;;;;;20.95;11.43;;;;;;;0.01;88.93;100998.47;4982693;28;20038;-66
2021/04/07 05:24:56;;;;;;;19.48;11.27;;;;;;;0.12;89.03;101002.19;4979405;28;20042;-64
2021/04/07 05:27:22;;;;;;;26.45;12.05;;;;;;;0.20;89.32;100996.44;4977394;28;20054;-67
2021/04/07 05:29:48;;;;;;;19.83;11.55;;;;;;;0.12;88.42;101004.75;4980556;28;20401;-65
2021/04/07 05:32:14;;;;;;;23.05;11.65;;;;;;;0.03;88.98;100998.53;4983805;28;20130;-65
2021/04/07 05:34:41;;;;;;;16.67;10.82;;;;;;;-0.04;89.77;101000.88;4979628;28;20073;-66
2021/04/07 05:37:07;;;;;;;21.80;11.43;;;;;;;0.00;89.67;100989.09;4998434;28;20056;-65
2021/04/07 05:42:55;;;;;;;20.63;11.55;;;;;;;0.02;89.66;100992.53;4967880;28;20616;-65
2021/04/07 05:45:21;;;;;;;17.92;10.00;;;;;;;-0.01;89.82;100992.47;4986431;28;20058;-66
2021/04/07 05:47:47;;;;;;;16.27;10.20;;;;;;;0.03;89.79;100986.59;4976742;28;20058;-65
2021/04/07 05:50:13;;;;;;;18.15;10.30;;;;;;;-0.01;89.88;100990.75;4986025;28;20053;-67
2021/04/07 05:52:39;;;;;;;18.88;9.60;;;;;;;0.05;89.97;100984.94;4988214;28;20427;-67
2021/04/07 05:55:06;;;;;;;14.57;9.00;;;;;;;0.14;90.01;100980.09;4980611;28;20082;-67
2021/04/07 05:57:33;;;;;;;16.05;8.85;;;;;;;-0.14;90.46;100982.69;4979692;28;20066;-64
2021/04/07 06:00:00;;;;;;;17.05;9.50;;;;;;;-0.01;90.11;100977.97;4980283;28;20074;-67
2021/04/07 06:02:25;;;;;;;13.98;8.30;;;;;;;0.16;90.68;100982.69;4983302;28;20061;-65
2021/04/07 06:04:51;;;;;;;14.68;8.73;;;;;;;0.06;89.65;100979.00;4984407;28;20050;-64
2021/04/07 06:07:17;;;;;;;15.38;8.80;;;;;;;0.26;90.39;100979.53;4990726;28;20054;-65
2021/04/07 06:09:43;;;;;;;12.88;7.55;;;;;;;0.22;89.63;100970.06;4985767;28;20105;-63
2021/04/07 06:12:09;;;;;;;13.10;8.10;;;;;;;0.28;88.93;100984.72;4984943;28;20473;-65
2021/04/07 06:14:35;;;;;;;13.55;8.35;;;;;;;0.41;89.68;100975.66;4986883;28;20129;-63
2021/04/07 06:17:02;;;;;;;15.65;9.25;;;;;;;0.17;88.97;100981.00;4975285;28;20054;-63
2021/04/07 06:19:28;;;;;;;19.88;8.57;;;;;;;0.28;88.58;100975.34;4985421;28;20053;-63
2021/04/07 06:21:54;;;;;;;15.75;8.02;;;;;;;0.34;88.48;100976.34;4977438;28;20078;-64
2021/04/07 06:24:20;;;;;;;13.70;7.85;;;;;;;0.19;88.36;100975.09;4985703;28;20125;-63
2021/04/07 06:26:46;;;;;;;13.50;7.75;;;;;;;0.21;88.40;100975.13;4983836;28;20108;-64
2021/04/07 06:29:12;;;;;;;15.43;8.68;;;;;;;0.41;89.09;100975.66;4980022;28;20150;-63
2021/04/07 06:31:38;;;;;;;18.13;8.07;;;;;;;0.44;87.80;100978.31;4980189;28;20145;-68
2021/04/07 06:34:07;;;;;;;11.35;6.47;;;;;;;0.50;86.66;100973.34;4975579;28;20093;-65
2021/04/07 06:36:33;;;;;;;11.45;6.90;;;;;;;0.39;86.81;100977.31;4986932;28;20653;-65
2021/04/07 06:38:59;;;;;;;13.48;7.47;;;;;;;0.48;87.56;100985.22;4974794;28;20053;-64
2021/04/07 06:41:25;;;;;;;15.40;8.10;;;;;;;0.54;87.24;100975.19;4982633;28;20065;-65
2021/04/07 06:43:51;;;;;;;12.40;5.88;;;;;;;0.50;87.06;100978.47;4983509;28;20172;-64
2021/04/07 06:46:21;;;;;;;14.63;6.35;;;;;;;0.43;86.82;100974.03;4978273;28;20081;-66
2021/04/07 06:48:47;;;;;;;8.95;5.50;;;;;;;0.45;86.79;100969.78;4978078;28;20048;-67
2021/04/07 06:51:17;;;;;;;13.15;4.80;;;;;;;0.44;86.55;100968.09;4974298;28;20055;-65
2021/04/07 06:53:48;;;;;;;8.45;4.57;;;;;;;0.53;87.03;100973.44;4986633;28;20054;-65
2021/04/07 06:56:15;;;;;;;12.07;5.18;;;;;;;0.59;86.43;100976.16;4979779;28;20134;-64
2021/04/07 06:58:41;;;;;;;6.43;3.75;;;;;;;0.58;86.25;100976.97;4981662;28;20504;-64
2021/04/07 07:01:07;;;;;;;13.77;6.00;;;;;;;1.19;92.49;100983.56;4983816;28;20076;-65
2021/04/07 07:03:33;;;;;;;11.68;6.38;;;;;;;1.24;86.55;100980.28;4979505;28;20046;-66
2021/04/07 07:05:59;;;;;;;9.82;3.58;;;;;;;0.95;85.38;100986.41;4973080;28;20113;-66
2021/04/07 07:08:31;;;;;;;6.82;3.30;;;;;;;0.80;85.71;100977.50;4981127;28;20046;-64
2021/04/07 07:10:57;;;;;;;7.53;3.08;;;;;;;0.58;86.19;100976.97;4981107;28;20055;-67
2021/04/07 07:13:25;;;;;;;7.07;3.08;;;;;;;0.61;87.68;100978.72;4985751;28;20054;-64
2021/04/07 07:15:51;;;;;;;7.10;3.60;;;;;;;0.46;87.21;100984.31;4989001;28;20842;-65
2021/04/07 07:18:21;;;;;;;6.80;2.92;;;;;;;0.57;86.96;100974.38;4988164;28;20046;-65
2021/04/07 07:20:47;;;;;;;6.90;3.15;;;;;;;0.58;87.33;100982.09;4980660;28;20121;-65
2021/04/07 07:23:21;;;;;;;6.18;3.17;;;;;;;0.53;87.11;100985.34;4982899;28;20102;-66
2021/04/07 07:25:58;;;;;;;10.98;2.83;;;;;;;0.54;86.81;100982.84;4982230;28;20467;-62
2021/04/07 07:28:26;;;;;;;8.85;2.70;;;;;;;0.52;86.77;100984.50;4972718;28;20050;-66
2021/04/07 07:30:52;;;;;;;4.70;2.08;;;;;;;0.47;86.52;100988.63;4975417;28;20891;-65
2021/04/07 07:33:20;;;;;;;4.10;2.13;;;;;;;0.39;86.18;100992.66;4982967;28;20092;-64
2021/04/07 07:35:47;;;;;;;6.60;2.80;;;;;;;0.35;86.83;100980.63;4970697;28;20058;-66
2021/04/07 07:38:21;;;;;;;4.20;1.90;;;;;;;0.37;87.05;100995.19;4977333;28;20146;-65
2021/04/07 07:40:47;;;;;;;3.85;1.73;;;;;;;0.35;86.58;101003.66;4978973;28;20058;-64
2021/04/07 07:43:14;;;;;;;5.20;1.70;;;;;;;0.35;86.75;101001.09;4979142;28;20054;-62
2021/04/07 07:45:42;;;;;;;5.75;1.92;;;;;;;0.40;86.64;101002.94;4978236;28;20058;-66
2021/04/07 07:48:12;;;;;;;4.25;1.98;;;;;;;0.36;87.10;100995.13;4970922;28;20050;-65
2021/04/07 07:50:41;;;;;;;5.13;2.05;;;;;;;0.46;87.36;100997.13;4970648;28;20133;-66
2021/04/07 07:53:14;;;;;;;5.68;2.00;;;;;;;0.39;87.43;100995.22;4985285;28;20460;-64
2021/04/07 07:55:42;;;;;;;7.40;1.88;;;;;;;0.46;87.29;101002.22;4965661;28;20051;-65
2021/04/07 07:58:08;;;;;;;4.40;1.70;;;;;;;0.51;87.10;101016.03;4979767;28;20516;-64
2021/04/07 08:00:35;;;;;;;3.97;1.73;;;;;;;0.61;87.04;101010.34;4986813;28;20061;-65
2021/04/07 08:03:09;;;;;;;4.75;1.77;;;;;;;0.57;86.93;100997.41;4983998;28;20053;-65
2021/04/07 08:05:36;;;;;;;3.90;2.20;;;;;;;0.73;86.83;101021.72;4975537;28;20057;-65
2021/04/07 08:08:03;;;;;;;5.95;1.98;;;;;;;0.70;86.96;101032.72;4976121;28;20480;-66
2021/04/07 08:10:29;;;;;;;4.18;1.58;;;;;;;0.61;86.64;101033.38;4985131;28;20046;-66
2021/04/07 08:12:57;;;;;;;3.38;1.50;;;;;;;0.70;87.05;101042.13;4984835;28;20508;-62
2021/04/07 08:15:25;;;;;;;4.40;1.80;;;;;;;0.72;86.89;101043.88;4990961;28;20042;-66
2021/04/07 08:17:53;;;;;;;4.75;2.05;;;;;;;0.84;87.36;101050.16;4995281;28;20046;-65
2021/04/07 08:20:19;;;;;;;6.22;1.80;;;;;;;0.73;86.84;101037.09;4980976;28;20504;-67
2021/04/07 08:22:47;;;;;;;3.15;1.85;;;;;;;0.67;87.92;101039.47;4986830;28;20054;-64
2021/04/07 08:25:17;;;;;;;3.30;1.45;;;;;;;0.71;87.39;101034.47;4985240;28;20137;-62
2021/04/07 08:27:43;;;;;;;5.40;1.60;;;;;;;0.72;87.55;101045.59;4991490;28;20058;-65
2021/04/07 08:30:10;;;;;;;4.18;1.83;;;;;;;0.85;87.18;101041.66;4993627;28;20049;-64
2021/04/07 08:32:38;;;;;;;3.83;1.77;;;;;;;0.99;86.62;101054.78;4988228;28;20050;-64
2021/04/07 08:35:06;;;;;;;4.82;1.90;;;;;;;0.99;86.91;101050.56;4983524;28;20042;-65
2021/04/07 08:37:33;;;;;;;3.33;1.83;;;;;;;0.94;86.98;101049.56;4984452;28;20066;-65
2021/04/07 08:40:09;;;;;;;3.75;2.00;;;;;;;1.02;87.23;101054.88;4988315;28;20046;-65
2021/04/07 08:42:37;;;;;;;4.35;1.90;;;;;;;0.99;87.61;101060.81;4985797;28;20078;-65
2021/04/07 08:45:06;;;;;;;5.97;2.13;;;;;;;1.07;87.08;101068.66;4991585;28;20070;-64
2021/04/07 08:47:42;;;;;;;3.13;1.95;;;;;;;1.14;87.20;101073.13;4987685;28;20058;-65
2021/04/07 08:50:11;;;;;;;4.65;2.30;;;;;;;1.16;86.71;101076.56;4986500;28;20050;-63
2021/04/07 08:52:43;;;;;;;5.05;2.72;;;;;;;1.12;87.22;101079.03;4989968;28;20776;-64
2021/04/07 08:55:15;;;;;;;7.82;2.30;;;;;;;1.22;87.29;101078.41;4987411;28;20069;-63
2021/04/07 08:57:41;;;;;;;5.47;2.28;;;;;;;1.35;86.66;101085.59;4991130;28;20105;-63
2021/04/07 09:00:11;;;;;;;4.80;2.80;;;;;;;1.32;86.85;101087.22;4986147;28;20431;-60
2021/04/07 09:02:47;;;;;;;3.75;2.13;;;;;;;1.37;86.75;101088.19;4973028;28;20058;-64
2021/04/07 09:05:15;;;;;;;5.55;2.22;;;;;;;1.37;86.65;101089.06;4989255;28;20046;-64
2021/04/07 09:07:43;;;;;;;6.93;2.40;;;;;;;1.38;86.64;101106.19;4983049;28;20046;-62
2021/04/07 09:10:14;;;;;;;3.58;2.05;;;;;;;1.24;86.97;101100.72;4976543;28;20057;-66
2021/04/07 09:12:42;;;;;;;5.35;2.22;;;;;;;1.19;87.59;101098.88;4977670;28;20141;-66
2021/04/07 09:15:17;;;;;;;6.50;2.40;;;;;;;1.37;87.55;101103.56;4980756;28;20060;-66
2021/04/07 09:17:44;;;;;;;5.53;2.85;;;;;;;1.51;87.64;101102.22;4977162;28;20058;-66
2021/04/07 09:20:31;;;;;;;7.63;3.63;;;;;;;1.58;87.39;101110.03;4985718;28;20404;-65
2021/04/07 09:23:06;;;;;;;6.07;2.53;;;;;;;1.70;87.33;101108.63;4989394;28;20068;-65
2021/04/07 09:25:33;;;;;;;9.15;2.85;;;;;;;1.79;87.61;101113.09;4986969;28;20076;-66
2021/04/07 09:28:04;;;;;;;11.10;3.47;;;;;;;1.87;87.59;101118.41;4984816;28;20057;-69
2021/04/07 09:30:38;;;;;;;8.63;2.83;;;;;;;1.95;87.57;101122.00;4985845;28;20073;-67
2021/04/07 09:33:07;;;;;;;7.05;2.90;;;;;;;1.99;87.79;101125.50;4990362;28;20050;-69
2021/04/07 09:35:32;;;;;;;8.48;3.05;;;;;;;2.09;87.47;101124.88;4988664;28;20094;-67
2021/04/07 09:37:59;;;;;;;8.40;3.47;;;;;;;1.98;88.12;101128.91;4985445;28;21322;-66
2021/04/07 09:40:26;;;;;;;11.10;4.80;;;;;;;2.04;88.34;101121.38;4984266;28;20050;-66
2021/04/07 09:42:52;;;;;;;9.73;3.10;;;;;;;2.12;88.42;101124.97;4987278;28;20042;-66
2021/04/07 09:45:23;;;;;;;7.90;3.40;;;;;;;2.32;88.18;101127.09;4981669;28;20126;-68
2021/04/07 09:47:54;;;;;;;11.40;3.70;;;;;;;2.40;88.26;101130.66;4978725;28;20149;-66
2021/04/07 09:50:20;;;;;;;11.77;4.00;;;;;;;2.38;88.72;101123.78;4980504;28;20046;-67
2021/04/07 09:52:47;;;;;;;16.58;5.03;;;;;;;2.54;88.37;101132.66;4982653;28;20050;-68
2021/04/07 09:55:20;;;;;;;14.85;3.33;;;;;;;2.67;88.11;101134.63;4983964;28;20133;-69
2021/04/07 09:57:56;;;;;;;11.18;4.28;;;;;;;2.73;87.96;101134.75;4986377;28;20058;-69
2021/04/07 10:00:28;;;;;;;11.63;3.35;;;;;;;2.87;87.73;101134.13;4981471;28;20117;-66
2021/04/07 10:02:55;;;;;;;12.82;3.08;;;;;;;3.07;88.13;101140.50;4977687;28;20050;-67
2021/04/07 10:05:26;;;;;;;20.30;4.20;;;;;;;3.28;87.27;101141.75;4986530;28;20718;-65
2021/04/07 10:07:53;;;;;;;14.95;3.35;;;;;;;3.30;87.41;101155.50;4979747;28;20421;-66
2021/04/07 10:10:23;;;;;;;15.40;3.33;;;;;;;3.24;87.72;101151.09;4980107;28;20500;-67
2021/04/07 10:12:49;;;;;;;13.02;3.30;;;;;;;3.23;87.80;101158.81;4982213;28;20049;-66
2021/04/07 10:15:18;;;;;;;16.52;3.83;;;;;;;3.13;88.28;101172.31;4987055;28;20055;-67
2021/04/07 10:17:44;;;;;;;17.25;3.30;;;;;;;3.17;88.90;101174.09;4988115;28;20129;-67
2021/04/07 10:20:12;;;;;;;18.92;4.03;;;;;;;3.16;88.63;101183.53;4984350;28;20459;-59
2021/04/07 10:22:39;;;;;;;8.60;3.05;;;;;;;2.99;88.55;101178.06;4975258;28;20057;-64
2021/04/07 10:25:13;;;;;;;18.33;4.68;;;;;;;2.95;89.01;101181.41;4982474;28;20055;-67
2021/04/07 10:31:10;;;;;;;10.50;3.80;;;;;;;2.96;89.14;101195.97;4969025;28;20110;-66
2021/04/07 10:33:37;;;;;;;13.68;3.85;;;;;;;2.91;89.53;101203.59;4980217;28;20069;-67
2021/04/07 10:36:04;;;;;;;19.08;4.28;;;;;;;2.92;89.77;101204.47;4984989;28;20053;-64
2021/04/07 10:38:31;;;;;;;17.65;5.15;;;;;;;3.00;89.82;101200.34;4981334;28;20104;-66
2021/04/07 10:40:59;;;;;;;12.00;3.47;;;;;;;3.07;89.97;101198.78;4983166;28;20138;-62
2021/04/07 10:43:30;;;;;;;15.27;4.20;;;;;;;3.08;89.40;101201.38;4985837;28;20050;-65
2021/04/07 10:45:58;;;;;;;11.02;2.33;;;;;;;3.05;89.34;101203.88;4983179;28;20050;-67
2021/04/07 10:48:25;;;;;;;11.88;2.88;;;;;;;3.04;89.13;101206.41;4987481;28;20522;-69
2021/04/07 10:50:51;;;;;;;14.38;3.53;;;;;;;3.14;89.22;101202.34;4985699;28;20057;-66
2021/04/07 10:56:39;;;;;;;18.75;4.78;;;;;;;3.46;88.94;101196.88;4970964;28;20045;-65
2021/04/07 10:59:10;;;;;;;17.25;4.07;;;;;;;3.65;89.11;101206.66;4990444;28;20429;-66
2021/04/07 11:01:37;;;;;;;18.08;3.17;;;;;;;3.85;88.49;101195.81;4988175;28;20054;-65
2021/04/07 11:04:13;;;;;;;17.10;3.95;;;;;;;4.02;87.80;101202.13;4982791;28;20055;-67
2021/04/07 11:06:40;;;;;;;18.52;4.07;;;;;;;4.13;88.48;101191.97;4972464;28;20053;-68
2021/04/07 11:09:06;;;;;;;16.63;4.10;;;;;;;4.42;87.44;101209.53;4986516;28;20070;-67
2021/04/07 11:14:54;;;;;;;13.93;2.25;;;;;;;4.75;83.74;101220.25;4980769;23;20054;-68
2021/04/07 11:17:20;;;;;;;16.60;2.03;;;;;;;4.36;82.40;101260.97;4974106;28;20054;-66
2021/04/07 11:19:56;;;;;;;7.32;0.90;;;;;;;3.66;80.87;101252.13;4981855;28;20051;-66
2021/04/07 11:22:22;;;;;;;6.28;1.15;;;;;;;3.38;83.27;101243.91;4974953;28;20516;-67
2021/04/07 11:24:48;;;;;;;8.73;2.10;;;;;;;3.20;85.37;101247.00;4981678;28;20054;-66
2021/04/07 11:27:36;;;;;;;10.18;1.67;;;;;;;3.28;86.37;101260.00;4973389;28;20043;-66
2021/04/07 11:37:36;;;;;;;13.65;1.60;;;;;;;3.39;86.09;101253.38;4961796;28;20565;-66
2021/04/07 11:40:07;;;;;;;14.95;1.90;;;;;;;3.32;86.24;101261.81;4962982;28;20061;-66
2021/04/07 11:42:43;;;;;;;15.45;1.88;;;;;;;3.22;86.67;101257.31;4972539;28;20061;-67
2021/04/07 11:45:11;;;;;;;10.70;1.42;;;;;;;3.28;86.92;101269.44;4970410;28;20051;-68
2021/04/07 11:47:37;;;;;;;12.43;1.70;;;;;;;3.29;87.07;101287.44;4968115;28;20046;-66
2021/04/07 11:50:03;;;;;;;18.52;2.53;;;;;;;3.08;86.47;101311.88;4985839;28;20509;-67
2021/04/07 11:52:31;;;;;;;7.30;1.33;;;;;;;2.72;84.55;101294.84;4972715;28;20083;-68
2021/04/07 11:54:58;;;;;;;7.10;1.52;;;;;;;2.58;85.62;101297.13;4972960;28;20094;-67
2021/04/07 11:57:24;;;;;;;10.45;1.30;;;;;;;2.54;86.05;101300.44;4979064;28;20047;-66
2021/04/07 11:59:52;;;;;;;15.85;2.25;;;;;;;2.49;87.11;101297.75;4984324;28;20053;-67
2021/04/07 12:02:18;;;;;;;14.98;3.60;;;;;;;2.59;87.04;101304.00;4966425;28;20133;-66
2021/04/07 12:04:46;;;;;;;13.50;2.45;;;;;;;2.64;87.25;101309.22;4969495;28;20046;-66
2021/04/07 12:07:12;;;;;;;11.15;1.95;;;;;;;2.79;87.40;101301.84;4975214;28;20077;-66
2021/04/07 12:09:47;;;;;;;13.32;2.97;;;;;;;2.88;87.58;101311.47;4971326;28;20508;-66